Time;durP1;ratioP1;P1;durP2;ratioP2;P2;SDS_P1;SDS_P2;PMS_P1;PMS_P2;Temp;Humidity;BMP_temperature;BMP_pressure;BME280_temperature;BME280_humidity;BME280_pressure;Samples;Min_cycle;Max_cycle;Signal;HPM_P1;HPM_P2
2022/07/13 00:00:46;;;;;;;1.50;1.40;;;21.40;50.50;;;;;;953040;149;27374;-72
2022/07/13 00:03:12;;;;;;;1.07;1.07;;;21.40;50.60;;;;;;947772;149;27332;-71
2022/07/13 00:05:39;;;;;;;1.42;1.32;;;21.40;50.70;;;;;;948461;149;27448;-72
2022/07/13 00:08:05;;;;;;;1.25;1.07;;;21.40;50.80;;;;;;950238;149;27347;-72
2022/07/13 00:10:32;;;;;;;0.90;0.90;;;21.40;51.00;;;;;;948921;149;27438;-72
2022/07/13 00:12:59;;;;;;;0.68;0.68;;;21.40;51.10;;;;;;951451;149;28553;-72
2022/07/13 00:15:25;;;;;;;1.20;1.10;;;21.40;51.30;;;;;;948612;149;27934;-72
2022/07/13 00:17:52;;;;;;;0.80;0.80;;;21.40;51.30;;;;;;949577;149;27895;-72
2022/07/13 00:20:18;;;;;;;0.88;0.88;;;21.50;51.40;;;;;;952052;149;27350;-72
2022/07/13 00:22:45;;;;;;;1.37;1.10;;;21.60;51.50;;;;;;956037;148;27356;-72
2022/07/13 00:25:12;;;;;;;1.52;1.17;;;21.60;51.50;;;;;;954433;148;27467;-72
2022/07/13 00:27:38;;;;;;;1.30;1.20;;;21.70;51.50;;;;;;955194;148;27313;-72
2022/07/13 00:30:05;;;;;;;2.33;1.10;;;21.70;51.30;;;;;;956514;148;27256;-71
2022/07/13 00:32:31;;;;;;;1.32;1.22;;;21.80;51.30;;;;;;953201;148;27360;-72
2022/07/13 00:34:58;;;;;;;3.08;1.32;;;21.80;51.10;;;;;;953833;148;27322;-72
2022/07/13 00:37:25;;;;;;;1.45;1.35;;;21.80;51.10;;;;;;950921;148;27366;-72
2022/07/13 00:39:51;;;;;;;0.90;0.90;;;21.80;51.10;;;;;;951490;148;27771;-71
2022/07/13 00:42:18;;;;;;;1.12;1.12;;;21.80;51.20;;;;;;952330;148;27339;-72
2022/07/13 00:44:44;;;;;;;0.75;0.75;;;21.80;51.30;;;;;;954626;148;27448;-72
2022/07/13 00:47:11;;;;;;;1.27;1.12;;;21.80;51.70;;;;;;953911;148;27312;-72
2022/07/13 00:49:38;;;;;;;2.30;1.30;;;21.80;51.40;;;;;;937993;151;27399;-72
2022/07/13 00:52:04;;;;;;;1.72;1.57;;;21.80;51.40;;;;;;954581;148;27399;-72
2022/07/13 00:54:31;;;;;;;0.98;0.95;;;21.80;51.40;;;;;;952578;148;27457;-72
2022/07/13 00:56:57;;;;;;;0.90;0.90;;;21.80;51.40;;;;;;953397;148;27348;-72
2022/07/13 00:59:24;;;;;;;1.07;1.07;;;21.80;51.40;;;;;;952157;148;27409;-72
2022/07/13 01:01:50;;;;;;;1.10;1.00;;;21.80;51.50;;;;;;938018;151;27475;-72
2022/07/13 01:04:17;;;;;;;1.15;1.15;;;21.70;51.50;;;;;;924964;151;27472;-72
2022/07/13 01:06:44;;;;;;;1.40;1.30;;;21.80;51.60;;;;;;958965;147;27355;-73
2022/07/13 01:09:10;;;;;;;1.35;1.25;;;21.70;51.60;;;;;;959219;147;27267;-72
2022/07/13 01:11:37;;;;;;;1.15;1.05;;;21.70;51.60;;;;;;941512;150;27369;-71
2022/07/13 01:14:03;;;;;;;1.30;1.20;;;21.70;51.70;;;;;;961730;147;27402;-71
2022/07/13 01:16:30;;;;;;;1.42;1.30;;;21.70;51.70;;;;;;942348;150;27462;-72
2022/07/13 01:18:57;;;;;;;1.05;1.02;;;21.70;51.70;;;;;;958804;147;27340;-71
2022/07/13 01:21:23;;;;;;;1.40;1.30;;;21.70;51.70;;;;;;958147;147;27441;-71
2022/07/13 01:23:50;;;;;;;2.17;1.30;;;21.70;51.80;;;;;;958389;147;27343;-71
2022/07/13 01:26:16;;;;;;;1.12;1.00;;;21.60;51.80;;;;;;959066;147;27302;-71
2022/07/13 01:28:43;;;;;;;1.05;1.05;;;21.60;52.40;;;;;;957992;147;27370;-71
2022/07/13 01:31:10;;;;;;;1.02;1.02;;;21.70;52.00;;;;;;958428;148;27390;-71
2022/07/13 01:33:37;;;;;;;1.10;1.10;;;21.70;52.10;;;;;;956058;148;27271;-71
2022/07/13 01:36:03;;;;;;;1.10;1.10;;;21.70;52.10;;;;;;959179;147;27367;-71
2022/07/13 01:38:29;;;;;;;1.20;1.20;;;21.70;52.20;;;;;;941220;150;27445;-70
2022/07/13 01:40:56;;;;;;;1.32;1.12;;;21.70;52.20;;;;;;959182;147;27386;-70
2022/07/13 01:43:23;;;;;;;1.47;1.20;;;21.70;52.10;;;;;;955917;147;27358;-70
2022/07/13 01:45:49;;;;;;;1.37;1.27;;;21.80;52.20;;;;;;955191;148;27320;-70
2022/07/13 01:48:16;;;;;;;2.60;1.45;;;21.80;52.80;;;;;;954182;148;27339;-70
2022/07/13 01:50:42;;;;;;;3.17;1.15;;;21.80;52.10;;;;;;954708;146;27268;-70
2022/07/13 01:53:09;;;;;;;1.37;1.27;;;21.70;52.00;;;;;;953252;148;27446;-70
2022/07/13 01:55:36;;;;;;;0.98;0.98;;;21.70;52.10;;;;;;959043;147;27816;-70
2022/07/13 01:58:02;;;;;;;2.67;1.30;;;21.70;52.10;;;;;;960629;147;27350;-70
2022/07/13 02:00:29;;;;;;;1.30;1.20;;;21.70;52.20;;;;;;958947;147;27390;-68
2022/07/13 02:02:55;;;;;;;1.42;1.37;;;21.60;52.20;;;;;;960744;147;27932;-69
2022/07/13 02:05:25;;;;;;;1.32;1.25;;;21.60;52.30;;;;;;955900;148;27354;-69
2022/07/13 02:07:48;;;;;;;1.30;1.20;;;21.60;52.20;;;;;;950782;148;27363;-69
2022/07/13 02:10:15;;;;;;;2.10;1.50;;;21.50;52.10;;;;;;951605;148;27444;-69
2022/07/13 02:12:42;;;;;;;2.33;1.30;;;21.50;52.20;;;;;;954744;148;27385;-69
2022/07/13 02:15:09;;;;;;;1.77;1.20;;;21.40;52.20;;;;;;953566;148;27384;-69
2022/07/13 02:17:35;;;;;;;1.60;1.50;;;21.40;52.30;;;;;;929576;151;27451;-69
2022/07/13 02:20:02;;;;;;;1.12;1.12;;;21.30;52.30;;;;;;944390;147;27425;-69
2022/07/13 02:22:28;;;;;;;1.32;1.22;;;21.20;52.50;;;;;;953793;148;27398;-68
2022/07/13 02:24:55;;;;;;;1.10;1.10;;;21.10;52.60;;;;;;951677;148;28061;-69
2022/07/13 02:27:22;;;;;;;1.20;1.20;;;21.00;52.80;;;;;;951104;148;27314;-69
2022/07/13 02:29:48;;;;;;;1.42;1.32;;;20.90;52.90;;;;;;953362;148;27287;-69
2022/07/13 02:32:15;;;;;;;1.12;1.02;;;20.80;52.80;;;;;;956023;148;27301;-71
2022/07/13 02:34:41;;;;;;;1.90;1.75;;;20.80;53.00;;;;;;955137;148;27350;-72
2022/07/13 02:37:11;;;;;;;1.50;1.40;;;20.70;53.10;;;;;;952749;148;27338;-72
2022/07/13 02:39:34;;;;;;;1.00;1.00;;;20.60;53.10;;;;;;951671;148;27256;-71
2022/07/13 02:42:01;;;;;;;1.00;1.00;;;20.50;53.30;;;;;;955164;148;27509;-71
2022/07/13 02:44:28;;;;;;;1.25;1.25;;;20.40;53.40;;;;;;951077;148;27663;-72
2022/07/13 02:46:54;;;;;;;1.27;1.22;;;20.30;53.60;;;;;;952713;148;27264;-72
2022/07/13 02:49:21;;;;;;;1.25;1.22;;;20.30;53.80;;;;;;953225;148;27604;-72
2022/07/13 02:51:47;;;;;;;1.70;1.60;;;20.20;53.90;;;;;;954685;148;28019;-72
2022/07/13 02:54:16;;;;;;;1.92;1.52;;;20.20;54.10;;;;;;952335;148;27397;-71
2022/07/13 02:56:41;;;;;;;1.20;1.20;;;20.10;54.20;;;;;;951616;148;27731;-71
2022/07/13 02:59:07;;;;;;;1.50;1.40;;;20.10;54.30;;;;;;950748;148;27335;-70
2022/07/13 03:01:34;;;;;;;1.80;1.70;;;20.10;54.30;;;;;;952456;148;27336;-72
2022/07/13 03:04:00;;;;;;;1.85;1.40;;;20.10;54.40;;;;;;951955;148;27354;-71
2022/07/13 03:06:27;;;;;;;1.27;1.17;;;20.00;54.50;;;;;;951998;148;27891;-71
2022/07/13 03:08:54;;;;;;;1.82;1.20;;;20.00;54.70;;;;;;952666;148;27331;-71
2022/07/13 03:11:20;;;;;;;1.70;1.60;;;20.00;54.80;;;;;;952107;148;27333;-71
2022/07/13 03:13:47;;;;;;;1.50;1.40;;;19.90;55.00;;;;;;938186;151;27333;-71
2022/07/13 03:16:13;;;;;;;2.37;1.50;;;19.90;54.90;;;;;;935641;151;27378;-71
2022/07/13 03:18:40;;;;;;;1.40;1.30;;;19.80;55.00;;;;;;936880;151;27897;-70
2022/07/13 03:21:07;;;;;;;1.65;1.47;;;19.70;55.00;;;;;;931245;151;27714;-71
2022/07/13 03:23:33;;;;;;;1.60;1.50;;;19.70;55.10;;;;;;952870;148;27330;-71
2022/07/13 03:26:00;;;;;;;1.22;1.22;;;19.60;55.30;;;;;;954059;148;27301;-71
2022/07/13 03:28:26;;;;;;;1.75;1.65;;;19.60;55.40;;;;;;954976;148;27354;-71
2022/07/13 03:30:53;;;;;;;1.60;1.50;;;19.50;55.70;;;;;;954721;148;27330;-70
2022/07/13 03:33:19;;;;;;;1.70;1.60;;;19.50;55.80;;;;;;922194;151;27369;-70
2022/07/13 03:35:46;;;;;;;1.47;1.40;;;19.40;56.00;;;;;;938723;151;27419;-70
2022/07/13 03:38:13;;;;;;;1.62;1.52;;;19.40;56.10;;;;;;957637;148;27806;-71
2022/07/13 03:40:39;;;;;;;1.40;1.30;;;19.40;56.20;;;;;;957148;148;27335;-71
2022/07/13 03:43:06;;;;;;;1.07;1.07;;;19.40;56.20;;;;;;953984;148;27347;-70
2022/07/13 03:45:32;;;;;;;1.65;1.55;;;19.40;56.30;;;;;;956745;148;27355;-70
2022/07/13 03:47:59;;;;;;;1.60;1.37;;;19.40;56.40;;;;;;955212;148;27333;-71
2022/07/13 03:50:26;;;;;;;1.60;1.50;;;19.50;56.60;;;;;;952951;148;27306;-70
2022/07/13 03:52:52;;;;;;;1.60;1.37;;;19.50;57.40;;;;;;952524;146;27348;-71
2022/07/13 03:55:19;;;;;;;1.60;1.50;;;19.60;56.90;;;;;;952159;148;27355;-70
2022/07/13 03:57:45;;;;;;;1.60;1.50;;;19.70;57.00;;;;;;950500;148;27331;-71
2022/07/13 04:00:12;;;;;;;1.30;1.30;;;19.70;56.90;;;;;;952037;148;27389;-70
2022/07/13 04:02:38;;;;;;;1.75;1.65;;;19.80;56.90;;;;;;953405;148;27576;-71
2022/07/13 04:05:05;;;;;;;1.50;1.40;;;19.80;56.70;;;;;;953237;148;27328;-71
2022/07/13 04:07:32;;;;;;;1.07;1.07;;;19.90;56.60;;;;;;948593;148;27538;-71
2022/07/13 04:09:58;;;;;;;1.45;1.35;;;19.90;56.60;;;;;;939512;149;27345;-71
2022/07/13 04:12:25;;;;;;;1.40;1.30;;;20.00;56.60;;;;;;933135;151;27320;-71
2022/07/13 04:14:52;;;;;;;1.50;1.40;;;20.00;56.60;;;;;;935790;151;27795;-71
2022/07/13 04:17:18;;;;;;;1.70;1.60;;;20.10;56.60;;;;;;940897;149;27348;-71
2022/07/13 04:19:45;;;;;;;1.62;1.52;;;20.10;56.60;;;;;;943964;149;27805;-71
2022/07/13 04:22:11;;;;;;;2.00;1.80;;;20.10;56.60;;;;;;943616;149;27366;-71
2022/07/13 04:24:38;;;;;;;1.95;1.75;;;20.20;56.60;;;;;;943589;149;27424;-71
2022/07/13 04:27:05;;;;;;;2.45;1.65;;;20.20;56.60;;;;;;941521;149;27312;-71
2022/07/13 04:29:31;;;;;;;1.45;1.35;;;20.20;56.70;;;;;;943448;149;27504;-71
2022/07/13 04:31:58;;;;;;;4.50;1.60;;;20.30;56.70;;;;;;940851;149;27390;-71
2022/07/13 04:34:24;;;;;;;1.40;1.30;;;20.30;56.60;;;;;;935425;150;27386;-72
2022/07/13 04:36:51;;;;;;;1.57;1.47;;;20.30;56.60;;;;;;936032;151;27436;-71
2022/07/13 04:39:17;;;;;;;2.20;1.60;;;20.40;56.60;;;;;;935550;151;27429;-71
2022/07/13 04:41:44;;;;;;;3.33;1.90;;;20.40;56.60;;;;;;939797;150;27354;-70
2022/07/13 04:44:11;;;;;;;2.05;1.85;;;20.40;56.60;;;;;;941501;149;27362;-70
2022/07/13 04:46:37;;;;;;;1.40;1.32;;;20.50;56.80;;;;;;939668;150;27283;-70
2022/07/13 04:49:04;;;;;;;2.90;1.67;;;20.50;56.70;;;;;;941150;149;27351;-70
2022/07/13 04:51:31;;;;;;;1.50;1.40;;;20.60;56.70;;;;;;942081;148;27341;-70
2022/07/13 04:53:57;;;;;;;1.02;1.02;;;20.60;56.70;;;;;;940330;150;27863;-71
2022/07/13 04:56:24;;;;;;;2.15;1.40;;;20.70;56.70;;;;;;939969;150;27352;-71
2022/07/13 04:58:50;;;;;;;1.90;1.65;;;20.70;56.70;;;;;;940786;149;27387;-70
2022/07/13 05:01:17;;;;;;;1.55;1.45;;;20.80;56.80;;;;;;935541;151;27364;-71
2022/07/13 05:03:43;;;;;;;1.60;1.50;;;20.90;56.80;;;;;;940001;149;27830;-70
2022/07/13 05:06:10;;;;;;;1.67;1.35;;;20.90;56.70;;;;;;923456;153;27321;-70
2022/07/13 05:08:37;;;;;;;1.87;1.40;;;21.00;56.80;;;;;;921825;152;27439;-70
2022/07/13 05:11:04;;;;;;;1.70;1.60;;;21.00;56.70;;;;;;937894;151;27329;-70
2022/07/13 05:13:30;;;;;;;2.08;1.98;;;21.10;56.70;;;;;;934807;151;27784;-70
2022/07/13 05:15:56;;;;;;;3.22;1.85;;;21.20;56.70;;;;;;937775;151;27452;-70
2022/07/13 05:18:23;;;;;;;1.50;1.40;;;21.20;56.60;;;;;;935205;151;27397;-70
2022/07/13 05:20:49;;;;;;;1.40;1.30;;;21.30;56.60;;;;;;935346;151;27433;-71
2022/07/13 05:23:16;;;;;;;1.70;1.60;;;21.40;56.70;;;;;;935088;151;27330;-71
2022/07/13 05:25:43;;;;;;;1.70;1.60;;;21.50;56.60;;;;;;935591;151;27413;-71
2022/07/13 05:28:09;;;;;;;3.42;1.40;;;21.60;56.60;;;;;;935015;151;27391;-72
2022/07/13 05:30:36;;;;;;;3.12;1.30;;;21.80;56.50;;;;;;938711;151;28684;-70
2022/07/13 05:33:02;;;;;;;2.60;1.45;;;21.90;56.40;;;;;;936190;151;27899;-71
2022/07/13 05:35:29;;;;;;;1.62;1.52;;;22.00;56.20;;;;;;937544;150;27479;-70
2022/07/13 05:37:56;;;;;;;1.98;1.47;;;22.10;56.10;;;;;;937676;151;27339;-70
2022/07/13 05:40:22;;;;;;;2.50;1.65;;;22.20;56.10;;;;;;936787;150;27434;-70
2022/07/13 05:42:49;;;;;;;2.22;1.57;;;22.30;55.90;;;;;;936901;151;27429;-70
2022/07/13 05:45:15;;;;;;;1.77;1.60;;;22.30;55.80;;;;;;933333;151;27422;-70
2022/07/13 05:47:47;;;;;;;2.42;1.57;;;22.40;55.70;;;;;;935563;151;27419;-72
2022/07/13 05:50:12;;;;;;;1.70;1.60;;;22.50;55.70;;;;;;936366;151;27321;-72
2022/07/13 05:52:38;;;;;;;1.47;1.37;;;22.60;55.80;;;;;;937013;151;27504;-72
2022/07/13 05:55:05;;;;;;;1.55;1.45;;;22.80;56.00;;;;;;937791;151;27772;-70
2022/07/13 05:57:31;;;;;;;2.25;1.70;;;23.00;56.30;;;;;;937442;151;27343;-72
2022/07/13 05:59:58;;;;;;;2.02;1.70;;;23.40;56.80;;;;;;936428;151;27304;-73
2022/07/13 06:02:25;;;;;;;1.35;1.32;;;23.80;56.90;;;;;;936533;151;27422;-72
2022/07/13 06:04:51;;;;;;;2.50;1.60;;;24.40;56.50;;;;;;940119;151;27362;-71
2022/07/13 06:07:18;;;;;;;1.75;1.65;;;24.90;55.60;;;;;;937703;151;27442;-71
2022/07/13 06:09:44;;;;;;;1.52;1.42;;;25.40;54.90;;;;;;936170;150;27397;-79
2022/07/13 06:12:11;;;;;;;1.62;1.52;;;25.80;54.00;;;;;;934865;151;27975;-78
2022/07/13 06:14:38;;;;;;;1.27;1.17;;;26.10;53.30;;;;;;937744;150;27455;-79
2022/07/13 06:17:04;;;;;;;1.87;1.37;;;26.40;52.70;;;;;;935222;151;27273;-77
2022/07/13 06:19:31;;;;;;;1.57;1.47;;;26.60;52.20;;;;;;935251;151;27379;-75
2022/07/13 06:21:57;;;;;;;2.30;1.47;;;26.80;52.00;;;;;;934217;150;27459;-77
2022/07/13 06:24:24;;;;;;;5.47;1.87;;;27.00;51.60;;;;;;936485;151;27427;-76
2022/07/13 06:26:50;;;;;;;1.95;1.50;;;27.10;51.30;;;;;;934690;151;27343;-74
2022/07/13 06:29:17;;;;;;;1.77;1.67;;;27.20;50.90;;;;;;939678;151;27370;-75
2022/07/13 06:31:44;;;;;;;1.20;1.20;;;27.20;51.10;;;;;;934640;151;27344;-75
2022/07/13 06:34:10;;;;;;;2.52;1.67;;;27.30;50.20;;;;;;937490;150;27361;-76
2022/07/13 06:36:38;;;;;;;2.55;1.32;;;27.30;50.00;;;;;;937015;151;27459;-75
2022/07/13 06:39:03;;;;;;;1.47;1.30;;;27.20;49.80;;;;;;938829;151;27286;-75
2022/07/13 06:41:30;;;;;;;2.10;1.77;;;27.20;49.80;;;;;;936518;151;27450;-80
2022/07/13 06:43:57;;;;;;;1.75;1.65;;;27.20;49.80;;;;;;939818;151;27333;-80
2022/07/13 06:46:23;;;;;;;1.72;1.62;;;27.20;50.00;;;;;;936565;151;27360;-79
2022/07/13 06:48:50;;;;;;;3.75;1.25;;;27.20;50.10;;;;;;933839;151;27718;-79
2022/07/13 06:51:16;;;;;;;2.37;1.20;;;27.20;50.10;;;;;;936419;148;27387;-76
2022/07/13 06:53:44;;;;;;;1.40;1.30;;;27.30;50.10;;;;;;935935;151;27797;-80
2022/07/13 06:56:10;;;;;;;1.50;1.40;;;27.40;50.00;;;;;;936373;151;27322;-80
2022/07/13 06:58:37;;;;;;;1.57;1.40;;;27.50;49.80;;;;;;938767;151;27382;-77
2022/07/13 07:01:04;;;;;;;3.60;1.57;;;27.60;49.60;;;;;;936295;148;27326;-80
2022/07/13 07:03:30;;;;;;;1.62;1.50;;;27.80;49.40;;;;;;935172;151;27409;-78
2022/07/13 07:05:57;;;;;;;1.15;1.15;;;27.90;49.30;;;;;;937043;151;27457;-79
2022/07/13 07:08:23;;;;;;;1.45;1.27;;;28.00;49.20;;;;;;935813;151;27343;-78
2022/07/13 07:10:50;;;;;;;2.42;1.30;;;28.10;49.10;;;;;;940603;151;27299;-78
2022/07/13 07:13:17;;;;;;;1.30;1.20;;;28.20;48.90;;;;;;936539;151;28312;-78
2022/07/13 07:15:43;;;;;;;1.52;1.00;;;28.40;48.80;;;;;;938940;151;27318;-79
2022/07/13 07:18:10;;;;;;;1.85;1.07;;;28.50;48.60;;;;;;938588;151;27443;-78
2022/07/13 07:20:36;;;;;;;1.25;0.90;;;28.70;48.60;;;;;;937825;151;27375;-78
2022/07/13 07:23:03;;;;;;;1.00;1.00;;;28.80;48.30;;;;;;939981;151;27387;-78
2022/07/13 07:25:30;;;;;;;1.37;1.17;;;29.00;48.00;;;;;;939079;151;27489;-79
2022/07/13 07:27:56;;;;;;;1.25;1.15;;;29.20;47.60;;;;;;936856;151;27449;-79
2022/07/13 07:30:23;;;;;;;2.33;1.45;;;29.40;47.50;;;;;;937988;151;27369;-79
2022/07/13 07:32:49;;;;;;;1.60;1.40;;;29.60;47.30;;;;;;938968;151;27349;-79
2022/07/13 07:35:16;;;;;;;2.05;1.70;;;29.80;47.00;;;;;;939149;151;27380;-79
2022/07/13 07:37:43;;;;;;;1.70;1.10;;;29.90;47.00;;;;;;938558;151;27302;-79
2022/07/13 07:40:10;;;;;;;1.25;1.12;;;30.20;46.90;;;;;;939110;151;27400;-78
2022/07/13 07:42:36;;;;;;;2.17;1.55;;;30.40;46.60;;;;;;936578;151;27439;-79
2022/07/13 07:45:02;;;;;;;1.30;1.20;;;30.70;46.60;;;;;;938467;151;27445;-79
2022/07/13 07:47:29;;;;;;;1.22;1.12;;;31.00;46.50;;;;;;938957;151;27448;-80
2022/07/13 07:49:55;;;;;;;1.32;1.20;;;31.40;46.50;;;;;;939900;151;27802;-80
2022/07/13 07:52:22;;;;;;;1.22;1.10;;;31.80;46.60;;;;;;938131;150;27459;-77
2022/07/13 07:54:49;;;;;;;2.58;1.47;;;32.40;46.30;;;;;;938799;151;27371;-78
2022/07/13 07:57:15;;;;;;;2.17;1.25;;;32.90;45.50;;;;;;939401;151;27362;-78
2022/07/13 07:59:42;;;;;;;0.75;0.75;;;33.40;44.60;;;;;;938803;151;28125;-78
2022/07/13 08:02:08;;;;;;;1.00;1.00;;;33.70;43.70;;;;;;940129;151;27408;-80
2022/07/13 08:04:35;;;;;;;1.07;1.00;;;34.00;43.00;;;;;;938151;151;27314;-80
2022/07/13 08:07:02;;;;;;;1.60;1.50;;;34.20;42.60;;;;;;938001;151;27403;-77
2022/07/13 08:09:28;;;;;;;1.07;0.98;;;34.20;42.10;;;;;;936286;150;27401;-79
2022/07/13 08:11:55;;;;;;;1.40;1.30;;;34.20;41.90;;;;;;935986;151;28289;-79
2022/07/13 08:14:21;;;;;;;1.37;0.90;;;34.20;41.70;;;;;;938553;151;27334;-78
2022/07/13 08:16:48;;;;;;;3.90;1.62;;;34.20;41.70;;;;;;936845;151;27262;-78
2022/07/13 08:19:15;;;;;;;1.30;1.20;;;34.40;42.20;;;;;;934966;151;27424;-80
2022/07/13 08:21:41;;;;;;;1.15;0.98;;;34.60;42.20;;;;;;937678;151;27837;-78
2022/07/13 08:24:08;;;;;;;1.10;0.90;;;35.00;42.30;;;;;;937987;151;26387;-78
2022/07/13 08:26:34;;;;;;;1.05;0.80;;;35.30;41.60;;;;;;939794;151;27368;-78
2022/07/13 08:29:02;;;;;;;0.88;0.88;;;35.60;41.30;;;;;;933783;151;26249;-78
2022/07/13 08:31:27;;;;;;;1.12;0.93;;;35.90;40.60;;;;;;936870;151;27314;-77
2022/07/13 08:39:23;;;;;;;1.75;0.90;;;36.40;39.50;;;;;;941429;149;26373;-78
2022/07/13 08:41:50;;;;;;;1.10;0.70;;;36.60;39.70;;;;;;938925;149;26245;-79
2022/07/13 08:44:16;;;;;;;0.90;0.90;;;36.80;39.40;;;;;;934091;151;26322;-77
2022/07/13 08:46:43;;;;;;;1.77;0.90;;;37.00;39.10;;;;;;940479;149;26371;-78
2022/07/13 08:49:10;;;;;;;1.87;1.00;;;37.20;38.70;;;;;;938337;149;26398;-77
2022/07/13 08:51:36;;;;;;;1.22;0.80;;;37.40;38.50;;;;;;910682;152;26349;-77
2022/07/13 08:54:06;;;;;;;0.95;0.85;;;37.50;38.10;;;;;;918311;153;26385;-77
2022/07/13 08:56:32;;;;;;;1.00;1.00;;;37.60;38.10;;;;;;941854;149;26210;-77
2022/07/13 08:58:59;;;;;;;0.70;0.70;;;37.90;38.30;;;;;;940721;149;27355;-79
2022/07/13 09:01:25;;;;;;;1.80;0.98;;;38.10;38.00;;;;;;941049;150;26270;-78
2022/07/13 09:03:52;;;;;;;19.67;16.57;;;38.40;37.60;;;;;;936111;151;26833;-77
2022/07/13 09:06:40;;;;;;;11.50;10.10;;;38.60;37.20;;;;;;944347;149;26165;-77
2022/07/13 09:09:07;;;;;;;5.70;3.72;;;38.80;36.80;;;;;;942739;149;26328;-78
2022/07/13 09:11:34;;;;;;;3.87;3.50;;;39.00;36.50;;;;;;941003;149;26233;-75
2022/07/13 09:14:00;;;;;;;9.10;4.12;;;39.30;37.30;;;;;;934346;151;27448;-75
2022/07/13 09:16:27;;;;;;;3.02;2.72;;;39.50;36.10;;;;;;933966;151;26370;-75
2022/07/13 09:18:53;;;;;;;2.15;1.90;;;39.80;35.70;;;;;;931896;151;26280;-75
2022/07/13 09:21:20;;;;;;;1.55;1.45;;;40.00;35.10;;;;;;937618;149;28417;-76
2022/07/13 09:23:55;;;;;;;0.95;0.95;;;40.20;35.00;;;;;;930529;153;26238;-75
2022/07/13 09:26:22;;;;;;;1.95;1.10;;;40.40;34.30;;;;;;944908;150;26347;-76
2022/07/13 09:28:49;;;;;;;0.90;0.90;;;40.60;34.10;;;;;;946075;150;26244;-76
2022/07/13 09:31:15;;;;;;;1.10;0.90;;;40.70;33.40;;;;;;939986;150;26260;-76
2022/07/13 09:33:43;;;;;;;0.82;0.80;;;40.80;33.40;;;;;;928493;153;26270;-76
2022/07/13 09:36:11;;;;;;;0.70;0.68;;;40.80;32.80;;;;;;929624;152;27595;-76
2022/07/13 09:38:38;;;;;;;0.68;0.68;;;40.90;32.60;;;;;;944858;150;27344;-76
2022/07/13 09:41:16;;;;;;;0.85;0.85;;;40.80;32.40;;;;;;939118;150;27376;-76
2022/07/13 09:47:04;;;;;;;0.80;0.50;;;40.60;32.00;;;;;;930609;151;26354;-76
2022/07/13 09:49:43;;;;;;;0.98;0.85;;;40.40;32.00;;;;;;929940;151;27444;-76
2022/07/13 09:52:09;;;;;;;0.70;0.70;;;40.20;32.10;;;;;;912188;151;26314;-76
2022/07/13 09:54:36;;;;;;;1.42;0.85;;;40.00;32.20;;;;;;922820;153;26245;-76
2022/07/13 09:57:07;;;;;;;1.95;0.62;;;39.80;32.20;;;;;;944430;150;26186;-76
2022/07/13 09:59:32;;;;;;;2.40;0.95;;;39.70;32.30;;;;;;944134;150;26327;-75
2022/07/13 10:01:59;;;;;;;0.20;0.20;;;39.50;32.50;;;;;;938292;150;26370;-76
2022/07/13 10:04:26;;;;;;;0.45;0.45;;;39.40;31.70;;;;;;932977;150;26353;-76
2022/07/13 10:06:52;;;;;;;1.75;0.72;;;39.20;31.80;;;;;;944427;150;26263;-76
2022/07/13 10:09:24;;;;;;;0.55;0.55;;;39.10;31.70;;;;;;946858;149;26294;-76
2022/07/13 10:11:45;;;;;;;0.50;0.50;;;39.00;32.00;;;;;;943188;148;27386;-76
2022/07/13 10:14:12;;;;;;;0.50;0.50;;;38.90;31.90;;;;;;940974;150;26366;-76
2022/07/13 10:16:38;;;;;;;0.65;0.65;;;38.80;31.70;;;;;;942733;149;26261;-76
2022/07/13 10:19:05;;;;;;;1.60;0.60;;;38.80;31.60;;;;;;940281;149;26334;-76
2022/07/13 10:21:56;;;;;;;0.68;0.60;;;38.60;31.40;;;;;;940028;149;26205;-76
2022/07/13 10:24:22;;;;;;;2.17;0.55;;;38.60;31.30;;;;;;941611;149;26311;-76
2022/07/13 10:26:49;;;;;;;1.20;0.65;;;38.40;31.20;;;;;;942330;149;26353;-76
2022/07/13 10:29:15;;;;;;;0.72;0.47;;;38.30;31.10;;;;;;939281;149;27353;-75
2022/07/13 10:31:42;;;;;;;3.10;0.50;;;38.10;31.00;;;;;;939958;149;26286;-75
2022/07/13 10:34:08;;;;;;;0.60;0.60;;;37.90;31.30;;;;;;939747;149;27402;-76
2022/07/13 10:36:57;;;;;;;1.55;0.40;;;37.70;31.30;;;;;;940578;149;26323;-74
2022/07/13 10:39:23;;;;;;;0.50;0.50;;;37.60;31.40;;;;;;940986;150;27413;-76
2022/07/13 10:42:01;;;;;;;2.00;0.55;;;37.50;31.40;;;;;;924357;152;27379;-75
2022/07/13 10:44:37;;;;;;;0.50;0.50;;;37.50;31.40;;;;;;941645;149;26168;-75
2022/07/13 10:47:03;;;;;;;1.27;0.60;;;37.50;31.50;;;;;;942627;149;27265;-75
2022/07/13 10:49:33;;;;;;;0.95;0.50;;;37.40;31.50;;;;;;942311;149;26344;-75
2022/07/13 10:52:17;;;;;;;1.50;0.60;;;37.50;32.40;;;;;;934515;150;26329;-75
2022/07/13 10:55:09;;;;;;;0.70;0.50;;;37.50;31.80;;;;;;921189;151;26284;-75
2022/07/13 10:57:32;;;;;;;0.68;0.50;;;37.60;31.50;;;;;;922490;149;26236;-75
2022/07/13 11:00:01;;;;;;;2.95;0.60;;;37.70;31.20;;;;;;941374;149;26257;-76
2022/07/13 11:02:50;;;;;;;0.65;0.50;;;37.90;31.30;;;;;;940240;149;27599;-75
2022/07/13 11:05:19;;;;;;;0.50;0.50;;;37.90;31.10;;;;;;922634;151;26344;-76
2022/07/13 11:07:45;;;;;;;0.90;0.50;;;38.10;30.80;;;;;;923181;152;26280;-75
2022/07/13 11:10:21;;;;;;;0.90;0.90;;;38.10;30.50;;;;;;939190;149;27835;-76
2022/07/13 11:13:08;;;;;;;1.92;0.90;;;38.20;30.30;;;;;;951731;148;26279;-75
2022/07/13 11:15:42;;;;;;;0.45;0.45;;;38.20;30.90;;;;;;953615;148;26239;-75
2022/07/13 11:18:28;;;;;;;1.30;0.57;;;38.20;30.30;;;;;;951682;148;26244;-76
2022/07/13 11:21:14;;;;;;;0.88;0.40;;;38.30;30.20;;;;;;955340;148;26271;-75
2022/07/13 11:26:45;;;;;;;0.75;0.40;;;38.40;30.00;;;;;;952080;148;26312;-75
2022/07/13 11:29:33;;;;;;;2.27;0.40;;;38.40;29.80;;;;;;951012;148;26313;-75
2022/07/13 11:32:00;;;;;;;1.07;0.55;;;38.40;29.70;;;;;;952786;148;26220;-76
2022/07/13 11:34:26;;;;;;;0.57;0.30;;;38.30;29.50;;;;;;950893;148;26220;-76
2022/07/13 11:36:53;;;;;;;0.45;0.45;;;38.30;29.40;;;;;;949515;148;26344;-75
2022/07/13 11:39:23;;;;;;;0.30;0.30;;;38.20;29.40;;;;;;948722;148;26732;-75
2022/07/13 11:41:51;;;;;;;0.47;0.42;;;38.30;29.40;;;;;;948806;148;26164;-75
2022/07/13 11:44:15;;;;;;;1.75;0.60;;;38.20;29.60;;;;;;952488;148;26164;-75
2022/07/13 11:46:42;;;;;;;0.37;0.37;;;38.20;29.60;;;;;;955537;148;26219;-76
2022/07/13 11:49:09;;;;;;;0.70;0.70;;;38.20;29.50;;;;;;953314;148;26253;-76
2022/07/13 11:51:35;;;;;;;0.47;0.47;;;38.10;29.40;;;;;;951672;146;26315;-76
2022/07/13 11:54:08;;;;;;;0.60;0.60;;;38.00;29.40;;;;;;953408;148;27409;-76
2022/07/13 11:56:34;;;;;;;0.40;0.40;;;38.00;29.30;;;;;;950229;148;26317;-77
2022/07/13 11:59:02;;;;;;;1.50;0.40;;;37.90;29.20;;;;;;935807;151;27305;-76
2022/07/13 12:01:28;;;;;;;1.87;0.57;;;37.70;29.20;;;;;;954202;148;26281;-77
2022/07/13 12:03:54;;;;;;;0.93;0.70;;;37.60;29.20;;;;;;937380;151;27919;-77
2022/07/13 12:06:21;;;;;;;0.50;0.50;;;37.40;29.20;;;;;;953987;148;27353;-76
2022/07/13 12:08:47;;;;;;;0.57;0.57;;;37.30;29.30;;;;;;953458;148;27398;-76
2022/07/13 12:11:15;;;;;;;1.17;0.57;;;37.20;29.30;;;;;;955457;148;27369;-76
2022/07/13 12:13:40;;;;;;;0.57;0.57;;;37.00;29.40;;;;;;920025;152;27932;-76
2022/07/13 12:16:07;;;;;;;0.65;0.55;;;36.90;29.30;;;;;;939329;149;27427;-76
2022/07/13 12:19:06;;;;;;;1.45;0.70;;;36.80;29.40;;;;;;940664;149;27292;-76
2022/07/13 12:21:31;;;;;;;1.27;0.68;;;36.70;29.30;;;;;;939802;150;27361;-76
2022/07/13 12:23:58;;;;;;;1.00;0.40;;;36.60;29.30;;;;;;946456;149;27388;-76
2022/07/13 12:26:24;;;;;;;0.50;0.50;;;36.50;29.50;;;;;;940375;148;27336;-76
2022/07/13 12:28:51;;;;;;;1.65;0.62;;;36.40;29.40;;;;;;940538;149;27322;-77
2022/07/13 12:31:20;;;;;;;0.50;0.50;;;36.40;30.10;;;;;;934226;151;27369;-76
2022/07/13 12:33:47;;;;;;;0.40;0.40;;;36.40;29.60;;;;;;943724;149;27468;-76
2022/07/13 12:36:13;;;;;;;0.60;0.60;;;36.30;29.60;;;;;;942370;149;27292;-77
2022/07/13 12:38:58;;;;;;;0.60;0.60;;;36.30;29.50;;;;;;929539;152;27418;-76
2022/07/13 12:41:34;;;;;;;2.75;0.60;;;36.20;29.50;;;;;;940586;150;27867;-76
2022/07/13 12:44:03;;;;;;;2.20;0.70;;;36.10;29.70;;;;;;939150;149;27347;-76
2022/07/13 12:46:45;;;;;;;0.65;0.50;;;36.00;29.50;;;;;;941014;149;28365;-77
2022/07/13 12:49:11;;;;;;;2.45;0.72;;;35.90;29.50;;;;;;938817;149;27445;-76
2022/07/13 12:51:47;;;;;;;1.92;1.10;;;35.80;29.70;;;;;;938947;149;27457;-76
2022/07/13 12:54:13;;;;;;;1.42;0.70;;;35.70;29.80;;;;;;922319;152;27432;-76
2022/07/13 12:56:48;;;;;;;3.10;0.88;;;35.70;29.90;;;;;;940840;150;27748;-76
2022/07/13 12:59:18;;;;;;;1.45;1.00;;;35.70;29.80;;;;;;938059;149;27451;-77